Time;durP1;ratioP1;P1;durP2;ratioP2;P2;SDS_P1;SDS_P2;PMS_P1;PMS_P2;Temp;Humidity;BMP_temperature;BMP_pressure;BME280_temperature;BME280_humidity;BME280_pressure;Samples;Min_cycle;Max_cycle;Signal;HPM_P1;HPM_P2
2023/10/31 00:02:15;;;;;;;17.67;2.70;;;25.40;21.40;;;;;;5054479;28;20073;-67
2023/10/31 00:04:42;;;;;;;15.93;3.15;;;25.30;21.90;;;;;;5046133;28;20087;-67
2023/10/31 00:07:08;;;;;;;19.23;4.70;;;25.20;22.30;;;;;;5046355;28;20083;-63
2023/10/31 00:09:35;;;;;;;25.63;5.75;;;25.10;22.60;;;;;;5053211;28;20620;-62
2023/10/31 00:12:01;;;;;;;23.23;5.90;;;25.00;22.80;;;;;;5045210;28;20134;-60
2023/10/31 00:14:28;;;;;;;20.73;3.10;;;24.90;23.00;;;;;;5046529;28;20462;-60
2023/10/31 00:16:54;;;;;;;20.50;2.35;;;24.90;23.10;;;;;;5044323;28;20485;-61
2023/10/31 00:19:21;;;;;;;18.50;2.47;;;24.80;22.00;;;;;;5049889;28;20876;-62
2023/10/31 00:21:47;;;;;;;18.60;2.40;;;24.70;21.80;;;;;;5049735;28;20123;-61
2023/10/31 00:24:13;;;;;;;17.63;2.47;;;24.60;21.60;;;;;;5048666;28;20089;-61
2023/10/31 00:26:40;;;;;;;22.40;2.88;;;24.50;21.90;;;;;;5058533;28;20080;-62
2023/10/31 00:29:06;;;;;;;25.00;2.10;;;24.40;21.80;;;;;;5049860;28;20083;-63
2023/10/31 00:31:34;;;;;;;20.55;2.58;;;24.30;21.60;;;;;;5049317;28;20632;-61
2023/10/31 00:34:02;;;;;;;20.65;2.72;;;24.20;21.60;;;;;;5065032;28;20132;-58
2023/10/31 00:36:28;;;;;;;15.07;3.13;;;24.10;21.90;;;;;;5061633;28;20077;-63
2023/10/31 00:38:55;;;;;;;17.73;3.10;;;24.10;22.00;;;;;;5050999;28;20075;-65
2023/10/31 00:41:21;;;;;;;17.38;3.08;;;24.00;22.20;;;;;;5049066;28;20438;-64
2023/10/31 00:43:48;;;;;;;20.23;3.20;;;24.00;22.60;;;;;;5059589;28;20235;-61
2023/10/31 00:46:14;;;;;;;29.67;2.70;;;23.90;22.70;;;;;;5049615;28;20388;-61
2023/10/31 00:48:40;;;;;;;14.77;2.92;;;23.80;22.90;;;;;;5049498;28;20088;-62
2023/10/31 00:51:07;;;;;;;16.48;3.53;;;23.70;23.20;;;;;;5068172;28;20533;-64
2023/10/31 00:53:33;;;;;;;15.02;3.33;;;23.60;23.40;;;;;;5049445;28;20414;-62
2023/10/31 00:56:00;;;;;;;18.75;2.80;;;23.50;23.70;;;;;;5047851;28;20462;-60
2023/10/31 00:58:26;;;;;;;15.77;2.70;;;23.40;24.20;;;;;;5048520;28;20224;-59
2023/10/31 01:00:53;;;;;;;19.60;3.85;;;23.40;24.40;;;;;;5049578;28;20580;-63
2023/10/31 01:03:19;;;;;;;25.05;4.28;;;23.30;25.20;;;;;;5048975;28;20082;-63
2023/10/31 01:05:46;;;;;;;12.95;3.05;;;23.20;25.50;;;;;;5048603;28;20083;-63
2023/10/31 01:08:12;;;;;;;17.33;3.80;;;23.10;25.70;;;;;;5056631;28;20075;-58
2023/10/31 01:10:39;;;;;;;14.55;2.92;;;23.00;25.60;;;;;;5049127;28;20138;-62
2023/10/31 01:13:05;;;;;;;20.25;3.10;;;22.90;25.80;;;;;;5048153;28;20529;-62
2023/10/31 01:15:32;;;;;;;21.58;3.47;;;22.90;26.00;;;;;;5053098;28;20109;-53
2023/10/31 01:18:00;;;;;;;20.73;3.15;;;22.80;26.60;;;;;;5050312;28;20102;-63
2023/10/31 01:20:27;;;;;;;21.83;3.40;;;22.70;26.90;;;;;;5056415;28;20079;-63
2023/10/31 01:22:53;;;;;;;20.45;3.47;;;22.60;27.40;;;;;;5049739;28;20458;-64
2023/10/31 01:25:19;;;;;;;22.75;3.42;;;22.50;27.30;;;;;;5049587;28;20093;-65
2023/10/31 01:27:46;;;;;;;23.63;3.80;;;22.40;27.50;;;;;;5049351;28;20125;-63
2023/10/31 01:30:13;;;;;;;27.17;3.10;;;22.40;28.00;;;;;;5047532;28;20081;-65
2023/10/31 01:32:40;;;;;;;23.50;5.15;;;22.30;28.00;;;;;;5049488;28;20071;-63
2023/10/31 01:35:06;;;;;;;28.65;4.28;;;22.20;28.10;;;;;;5048091;28;20224;-64
2023/10/31 01:37:33;;;;;;;20.08;3.60;;;22.10;28.00;;;;;;5049588;28;20090;-61
2023/10/31 01:39:59;;;;;;;22.77;3.72;;;22.00;28.00;;;;;;5048822;28;20221;-64
2023/10/31 01:42:26;;;;;;;19.13;4.05;;;21.90;27.90;;;;;;5048436;28;20128;-63
2023/10/31 01:44:52;;;;;;;31.60;4.32;;;21.80;28.40;;;;;;5048005;28;20082;-63
2023/10/31 01:47:19;;;;;;;30.98;4.57;;;21.70;28.50;;;;;;5048391;28;20079;-65
2023/10/31 01:49:45;;;;;;;34.97;4.25;;;21.70;28.40;;;;;;5057869;28;20169;-63
2023/10/31 01:52:12;;;;;;;23.10;4.47;;;21.60;29.00;;;;;;5047623;28;20103;-62
2023/10/31 01:54:38;;;;;;;43.13;5.10;;;21.50;29.60;;;;;;5048432;28;20109;-64
2023/10/31 01:57:05;;;;;;;21.25;4.45;;;21.40;29.20;;;;;;5047046;28;20180;-63
2023/10/31 01:59:32;;;;;;;33.97;4.53;;;21.30;29.10;;;;;;5047417;28;20085;-61
2023/10/31 02:02:00;;;;;;;31.85;4.88;;;21.20;29.70;;;;;;5048468;28;20076;-64
2023/10/31 02:04:27;;;;;;;36.05;5.13;;;21.20;30.00;;;;;;5048182;28;21670;-64
2023/10/31 02:06:53;;;;;;;37.67;5.60;;;21.10;29.80;;;;;;5047699;28;20120;-63
2023/10/31 02:09:24;;;;;;;33.05;5.22;;;21.00;30.30;;;;;;5048768;28;20083;-65
2023/10/31 02:11:51;;;;;;;51.65;5.93;;;20.90;30.90;;;;;;5048829;28;20079;-61
2023/10/31 02:14:17;;;;;;;44.38;7.57;;;20.80;31.40;;;;;;5047947;28;20099;-63
2023/10/31 02:16:44;;;;;;;46.75;6.95;;;20.70;32.30;;;;;;5059398;28;20084;-64
2023/10/31 02:19:13;;;;;;;53.20;6.82;;;20.60;31.60;;;;;;5047094;28;20084;-64
2023/10/31 02:21:40;;;;;;;51.03;6.85;;;20.50;31.70;;;;;;5048057;28;20470;-63
2023/10/31 02:24:07;;;;;;;57.97;7.28;;;20.40;33.10;;;;;;5047385;28;20164;-66
2023/10/31 02:26:35;;;;;;;46.80;7.20;;;20.30;32.60;;;;;;5048244;28;20093;-67
2023/10/31 02:29:02;;;;;;;36.78;6.72;;;20.30;32.20;;;;;;5048762;28;20556;-65
2023/10/31 02:31:29;;;;;;;54.05;6.93;;;20.20;32.40;;;;;;5048855;28;20171;-65
2023/10/31 02:33:55;;;;;;;52.47;7.90;;;20.10;32.20;;;;;;5047082;28;20091;-61
2023/10/31 02:36:23;;;;;;;45.47;7.03;;;20.10;32.20;;;;;;5048713;28;20163;-64
2023/10/31 02:38:49;;;;;;;42.45;7.00;;;20.00;32.10;;;;;;5048243;28;20085;-60
2023/10/31 02:41:16;;;;;;;52.83;8.27;;;20.00;33.00;;;;;;5046899;28;20090;-65
2023/10/31 02:43:43;;;;;;;45.05;7.05;;;19.90;33.40;;;;;;5048484;28;20120;-66
2023/10/31 02:46:12;;;;;;;54.67;8.43;;;19.80;33.30;;;;;;5047867;28;20612;-67
2023/10/31 02:48:41;;;;;;;46.13;7.88;;;19.70;32.60;;;;;;5047726;28;20187;-65
2023/10/31 02:51:08;;;;;;;70.57;9.10;;;19.70;33.70;;;;;;5047559;28;20107;-59
2023/10/31 02:53:36;;;;;;;84.85;9.43;;;19.70;33.80;;;;;;5056098;28;20114;-62
2023/10/31 02:56:05;;;;;;;77.38;9.27;;;19.60;33.50;;;;;;5046488;28;20072;-64
2023/10/31 02:58:31;;;;;;;75.95;10.50;;;19.60;33.20;;;;;;5046804;28;20216;-66
2023/10/31 03:00:58;;;;;;;66.38;9.23;;;19.60;34.80;;;;;;5047538;28;20087;-63
2023/10/31 03:03:24;;;;;;;58.72;9.52;;;19.50;34.40;;;;;;5047380;28;20167;-67
2023/10/31 03:05:51;;;;;;;73.10;10.90;;;19.40;33.70;;;;;;5045022;28;20118;-65
2023/10/31 03:08:20;;;;;;;64.30;10.05;;;19.50;32.50;;;;;;5048090;28;20088;-62
2023/10/31 03:10:52;;;;;;;42.38;10.10;;;19.40;32.30;;;;;;5047584;28;20193;-64
2023/10/31 03:13:19;;;;;;;58.47;9.60;;;19.40;31.10;;;;;;5045113;28;20096;-64
2023/10/31 03:15:48;;;;;;;46.15;9.57;;;19.40;30.90;;;;;;5045963;28;20076;-63
2023/10/31 03:18:15;;;;;;;77.10;10.45;;;19.50;30.70;;;;;;5047316;28;20094;-65
2023/10/31 03:20:46;;;;;;;54.63;9.73;;;19.50;31.50;;;;;;5046043;28;20084;-64
2023/10/31 03:23:13;;;;;;;50.90;10.23;;;19.40;30.40;;;;;;5046615;28;20099;-67
2023/10/31 03:25:40;;;;;;;40.47;9.88;;;19.40;31.00;;;;;;5047518;28;20559;-66
2023/10/31 03:28:25;;;;;;;56.38;10.02;;;19.40;30.70;;;;;;5046125;28;20082;-65
2023/10/31 03:30:51;;;;;;;51.80;11.05;;;19.40;31.30;;;;;;5046335;28;20072;-64
2023/10/31 03:33:18;;;;;;;52.25;11.10;;;19.30;30.70;;;;;;5047266;28;20453;-66
2023/10/31 03:35:45;;;;;;;52.63;11.65;;;19.30;30.20;;;;;;5047294;28;20171;-63
2023/10/31 03:38:11;;;;;;;55.85;11.52;;;19.20;30.60;;;;;;5046621;28;20080;-62
2023/10/31 03:40:38;;;;;;;53.00;11.13;;;19.20;30.90;;;;;;5046053;28;20164;-60
2023/10/31 03:43:05;;;;;;;49.35;11.32;;;19.20;31.90;;;;;;5047099;28;20071;-64
2023/10/31 03:45:31;;;;;;;73.55;11.93;;;19.10;30.60;;;;;;5047262;28;20084;-61
2023/10/31 03:47:58;;;;;;;70.25;12.52;;;19.00;31.00;;;;;;5045787;28;20080;-62
2023/10/31 03:50:24;;;;;;;57.58;12.02;;;19.00;30.90;;;;;;5060202;28;20072;-65
2023/10/31 03:52:51;;;;;;;67.65;11.77;;;18.90;30.70;;;;;;5046112;28;20076;-64
2023/10/31 03:55:17;;;;;;;51.67;11.25;;;18.90;30.90;;;;;;5046695;28;20185;-66
2023/10/31 03:57:44;;;;;;;70.95;12.98;;;19.00;31.90;;;;;;5045319;28;20080;-65
2023/10/31 04:00:11;;;;;;;57.90;12.20;;;18.90;31.00;;;;;;5045994;28;20072;-66
2023/10/31 04:02:39;;;;;;;72.32;12.75;;;18.90;31.10;;;;;;5046171;28;20176;-65
2023/10/31 04:05:06;;;;;;;66.43;13.55;;;18.80;31.60;;;;;;5044430;28;20095;-63
2023/10/31 04:07:33;;;;;;;80.15;13.15;;;18.80;32.20;;;;;;5046709;28;20095;-63
2023/10/31 04:10:00;;;;;;;75.20;12.60;;;18.80;31.60;;;;;;5046822;28;20112;-60
2023/10/31 04:12:26;;;;;;;58.70;12.05;;;18.80;31.60;;;;;;5046438;28;20084;-64
2023/10/31 04:14:52;;;;;;;70.00;11.82;;;18.70;33.50;;;;;;5045816;28;20630;-64
2023/10/31 04:17:19;;;;;;;64.47;12.98;;;18.60;34.20;;;;;;5046763;28;20076;-56
2023/10/31 04:19:45;;;;;;;74.68;14.35;;;18.50;33.70;;;;;;5046031;28;20072;-65
2023/10/31 04:22:12;;;;;;;93.30;15.90;;;18.50;33.70;;;;;;5046797;28;20487;-64
2023/10/31 04:24:38;;;;;;;84.50;15.63;;;18.40;34.50;;;;;;5046906;28;20537;-66
2023/10/31 04:27:05;;;;;;;64.78;16.75;;;18.30;34.10;;;;;;5046041;28;20608;-62
2023/10/31 04:29:31;;;;;;;90.38;17.00;;;18.30;33.70;;;;;;5054157;28;20084;-65
2023/10/31 04:31:58;;;;;;;84.28;16.65;;;18.20;35.10;;;;;;5046280;28;20448;-64
2023/10/31 04:34:24;;;;;;;92.15;17.75;;;18.20;34.70;;;;;;5046810;28;20523;-64
2023/10/31 04:36:51;;;;;;;98.25;17.42;;;18.20;34.30;;;;;;5045438;28;20475;-65
2023/10/31 04:39:17;;;;;;;88.20;17.77;;;18.10;34.10;;;;;;5045942;28;20142;-65
2023/10/31 04:41:44;;;;;;;109.82;17.73;;;18.10;33.70;;;;;;5045020;28;20094;-65
2023/10/31 04:44:10;;;;;;;96.47;18.60;;;18.10;33.80;;;;;;5046720;28;20088;-65
2023/10/31 04:46:37;;;;;;;106.50;19.63;;;18.10;34.00;;;;;;5045879;28;20099;-65
2023/10/31 04:49:03;;;;;;;128.35;19.95;;;18.00;34.00;;;;;;5049586;28;20106;-65
2023/10/31 04:51:37;;;;;;;101.50;18.02;;;18.00;34.60;;;;;;5059031;28;20123;-63
2023/10/31 04:54:04;;;;;;;118.30;20.65;;;17.90;36.20;;;;;;5049705;28;20112;-62
2023/10/31 04:56:31;;;;;;;95.28;17.50;;;17.90;35.90;;;;;;5057435;28;20075;-65
2023/10/31 04:58:58;;;;;;;105.40;20.73;;;17.80;35.40;;;;;;5057609;28;20086;-64
2023/10/31 05:01:24;;;;;;;99.70;18.25;;;17.80;36.40;;;;;;5054122;28;20088;-63
2023/10/31 05:03:51;;;;;;;99.32;19.42;;;17.70;37.10;;;;;;5052909;28;20519;-65
2023/10/31 05:06:22;;;;;;;102.30;17.67;;;17.70;37.00;;;;;;5061962;28;20088;-63
2023/10/31 05:08:49;;;;;;;101.00;18.48;;;17.60;37.30;;;;;;5069007;28;20555;-64
2023/10/31 05:11:19;;;;;;;108.78;20.40;;;17.60;38.40;;;;;;5059073;28;20091;-63
2023/10/31 05:13:46;;;;;;;117.65;20.80;;;17.60;38.10;;;;;;5050202;28;20139;-61
2023/10/31 05:16:12;;;;;;;115.75;19.67;;;17.50;36.50;;;;;;5048671;28;20080;-64
2023/10/31 05:18:39;;;;;;;127.43;22.30;;;17.50;36.20;;;;;;5058351;28;20076;-63
2023/10/31 05:21:06;;;;;;;103.65;19.60;;;17.40;37.80;;;;;;5056479;28;20078;-65
2023/10/31 05:23:32;;;;;;;104.78;20.33;;;17.40;37.30;;;;;;5060143;28;21351;-63
2023/10/31 05:25:59;;;;;;;108.75;19.80;;;17.40;36.90;;;;;;5057550;28;20080;-66
2023/10/31 05:28:25;;;;;;;118.40;22.13;;;17.40;36.70;;;;;;5060319;28;20076;-61
2023/10/31 05:30:52;;;;;;;104.93;21.38;;;17.40;37.90;;;;;;5052875;28;20489;-64
2023/10/31 05:33:18;;;;;;;115.53;20.48;;;17.30;38.20;;;;;;5059657;28;20146;-65
2023/10/31 05:35:44;;;;;;;114.25;23.60;;;17.30;39.00;;;;;;5051754;28;20076;-64
2023/10/31 05:38:11;;;;;;;130.00;23.88;;;17.30;38.60;;;;;;5056799;28;20443;-65
2023/10/31 05:40:37;;;;;;;108.78;24.77;;;17.20;38.10;;;;;;5066056;28;20084;-66
2023/10/31 05:43:04;;;;;;;101.97;23.95;;;17.20;38.70;;;;;;5063716;28;20467;-64
2023/10/31 05:45:31;;;;;;;125.57;24.92;;;17.10;39.90;;;;;;5065388;28;20122;-64
2023/10/31 05:47:57;;;;;;;118.82;23.33;;;17.00;39.60;;;;;;5061846;28;20079;-64
2023/10/31 05:50:24;;;;;;;119.15;23.70;;;17.00;39.80;;;;;;5061729;28;20175;-63
2023/10/31 05:52:50;;;;;;;112.55;22.75;;;17.00;39.80;;;;;;5060091;28;20168;-63
2023/10/31 05:55:17;;;;;;;93.82;21.02;;;17.00;40.20;;;;;;5059084;28;20578;-63
2023/10/31 05:57:43;;;;;;;98.57;22.90;;;17.00;39.70;;;;;;5053937;28;21063;-58
2023/10/31 06:00:10;;;;;;;128.77;25.08;;;17.10;39.90;;;;;;5047261;28;20076;-61
2023/10/31 06:02:36;;;;;;;122.32;23.13;;;17.20;39.70;;;;;;5047946;28;20603;-60
2023/10/31 06:05:03;;;;;;;104.57;22.77;;;17.40;39.10;;;;;;5049158;28;20774;-58
2023/10/31 06:07:30;;;;;;;116.13;23.38;;;17.60;37.70;;;;;;5069656;28;20076;-60
2023/10/31 06:09:56;;;;;;;106.32;22.77;;;17.70;38.30;;;;;;5058845;28;20100;-59
2023/10/31 06:12:23;;;;;;;105.07;24.30;;;17.90;39.30;;;;;;5046753;28;20096;-60
2023/10/31 06:14:49;;;;;;;90.85;23.08;;;17.80;37.60;;;;;;5047797;28;20150;-60
2023/10/31 06:17:16;;;;;;;107.40;22.85;;;17.80;37.00;;;;;;5047672;28;20138;-60
2023/10/31 06:19:45;;;;;;;97.93;22.27;;;18.00;36.90;;;;;;5046244;28;20095;-59
2023/10/31 06:22:12;;;;;;;89.80;21.90;;;18.00;36.10;;;;;;5048191;28;20103;-59
2023/10/31 06:24:40;;;;;;;109.97;23.90;;;17.90;35.90;;;;;;5047107;28;20163;-60
2023/10/31 06:27:07;;;;;;;110.88;23.70;;;18.00;36.40;;;;;;5048047;28;20521;-60
2023/10/31 06:29:33;;;;;;;95.03;24.35;;;18.00;36.60;;;;;;5047618;28;20090;-59
2023/10/31 06:32:01;;;;;;;107.55;23.90;;;18.10;37.70;;;;;;5047638;28;20080;-61
2023/10/31 06:34:27;;;;;;;102.90;27.00;;;18.00;38.20;;;;;;5047155;28;20282;-57
2023/10/31 06:36:54;;;;;;;94.47;25.00;;;18.00;36.60;;;;;;5047100;28;20084;-59
2023/10/31 06:39:22;;;;;;;90.68;26.33;;;18.10;35.60;;;;;;5046712;28;20163;-61
2023/10/31 06:41:49;;;;;;;108.35;26.77;;;18.00;36.40;;;;;;5047581;28;20080;-61
2023/10/31 06:44:15;;;;;;;93.07;26.13;;;18.00;37.70;;;;;;5047951;28;20092;-58
2023/10/31 06:46:42;;;;;;;108.90;26.63;;;18.00;36.80;;;;;;5048521;28;20201;-61
2023/10/31 06:49:08;;;;;;;95.38;26.27;;;17.90;35.60;;;;;;5051466;28;20110;-60
2023/10/31 06:51:34;;;;;;;88.35;22.85;;;17.90;35.70;;;;;;5050276;28;20544;-58
2023/10/31 06:54:01;;;;;;;99.95;24.17;;;17.80;35.10;;;;;;5045827;28;20181;-60
2023/10/31 06:56:28;;;;;;;92.43;23.88;;;17.90;34.50;;;;;;5047916;28;20088;-59
2023/10/31 06:58:55;;;;;;;64.97;20.83;;;17.80;34.80;;;;;;5046694;28;20080;-60
2023/10/31 07:01:21;;;;;;;83.00;20.58;;;17.80;35.70;;;;;;5046624;28;20091;-59
2023/10/31 07:03:48;;;;;;;90.65;21.25;;;17.70;34.90;;;;;;5047711;28;20088;-62
2023/10/31 07:06:14;;;;;;;76.10;17.75;;;17.70;34.80;;;;;;5047637;28;20077;-59
2023/10/31 07:08:41;;;;;;;71.60;17.08;;;17.70;34.40;;;;;;5046967;28;20082;-61
2023/10/31 07:11:07;;;;;;;55.35;15.10;;;17.80;33.50;;;;;;5046560;28;20092;-60
2023/10/31 07:13:34;;;;;;;85.53;13.68;;;17.70;33.40;;;;;;5046204;28;20132;-62
2023/10/31 07:16:00;;;;;;;44.70;12.25;;;17.60;33.20;;;;;;5047684;28;20067;-60
2023/10/31 07:18:27;;;;;;;55.95;13.52;;;17.50;33.50;;;;;;5046857;28;20079;-60
2023/10/31 07:20:54;;;;;;;46.55;13.80;;;17.30;34.60;;;;;;5045441;28;20129;-62
2023/10/31 07:23:20;;;;;;;57.75;13.73;;;17.30;34.80;;;;;;5046633;28;20225;-59
2023/10/31 07:25:46;;;;;;;57.28;14.68;;;17.20;33.70;;;;;;5047527;28;20537;-60
2023/10/31 07:28:13;;;;;;;44.42;15.32;;;17.20;33.70;;;;;;5045422;28;20076;-57
2023/10/31 07:30:39;;;;;;;49.38;14.02;;;17.20;34.30;;;;;;5047247;28;20076;-60
2023/10/31 07:33:06;;;;;;;48.25;15.27;;;17.20;34.30;;;;;;5047189;28;20088;-59
2023/10/31 07:35:32;;;;;;;54.10;14.57;;;17.10;33.80;;;;;;5045883;28;20088;-60
2023/10/31 07:37:59;;;;;;;46.45;11.93;;;17.20;33.70;;;;;;5059234;28;20115;-58
2023/10/31 07:40:25;;;;;;;37.05;11.00;;;17.10;33.90;;;;;;5046506;28;20095;-58
2023/10/31 07:42:55;;;;;;;27.05;8.70;;;17.10;33.90;;;;;;5045762;28;20133;-60
2023/10/31 07:45:21;;;;;;;39.95;8.73;;;17.10;32.80;;;;;;5046219;28;20635;-59
2023/10/31 07:47:48;;;;;;;36.10;7.88;;;17.10;33.30;;;;;;5045510;28;20537;-59
2023/10/31 07:50:14;;;;;;;33.67;7.90;;;17.00;33.20;;;;;;5059743;28;20129;-60
2023/10/31 07:52:41;;;;;;;27.05;6.20;;;16.90;33.60;;;;;;5053182;28;20100;-58
2023/10/31 07:55:07;;;;;;;32.25;7.40;;;16.90;32.20;;;;;;5046460;28;20104;-60
2023/10/31 07:57:34;;;;;;;19.88;7.00;;;16.90;32.20;;;;;;5047252;28;20072;-61
2023/10/31 08:00:00;;;;;;;28.25;6.03;;;16.90;32.90;;;;;;5042693;28;20452;-60
2023/10/31 08:02:27;;;;;;;21.80;5.18;;;16.90;32.20;;;;;;5045696;28;20233;-61
2023/10/31 08:04:53;;;;;;;14.68;4.97;;;16.90;32.20;;;;;;5047004;28;20076;-59
2023/10/31 08:07:20;;;;;;;20.23;4.53;;;16.80;32.10;;;;;;5046163;28;20076;-59
2023/10/31 08:09:46;;;;;;;11.98;4.40;;;16.80;32.80;;;;;;5046627;28;20119;-58
2023/10/31 08:12:13;;;;;;;14.63;5.10;;;16.80;32.50;;;;;;5054847;28;20088;-59
2023/10/31 08:14:39;;;;;;;14.27;4.55;;;16.80;32.70;;;;;;5045735;28;20092;-61
2023/10/31 08:17:05;;;;;;;14.60;4.40;;;16.70;32.60;;;;;;5045885;28;20076;-59
2023/10/31 08:19:32;;;;;;;11.50;3.92;;;16.70;32.00;;;;;;5046301;28;20080;-59
2023/10/31 08:21:58;;;;;;;12.02;3.67;;;16.70;31.90;;;;;;5047164;28;20073;-59
2023/10/31 08:24:27;;;;;;;15.55;4.47;;;16.60;31.80;;;;;;5046528;28;20077;-61
2023/10/31 08:26:54;;;;;;;14.23;4.00;;;16.60;31.80;;;;;;5046797;28;20170;-60
2023/10/31 08:29:20;;;;;;;15.80;4.65;;;16.70;31.80;;;;;;5046852;28;20643;-59
2023/10/31 08:31:47;;;;;;;14.35;4.78;;;16.60;31.40;;;;;;5045574;28;20567;-59
2023/10/31 08:34:13;;;;;;;10.52;4.25;;;16.70;31.30;;;;;;5046633;28;20096;-59
2023/10/31 08:36:40;;;;;;;10.20;3.65;;;16.80;31.60;;;;;;5046259;28;20086;-60
2023/10/31 08:39:06;;;;;;;11.00;4.03;;;16.80;31.80;;;;;;5047566;28;20089;-62
2023/10/31 08:41:33;;;;;;;13.07;3.38;;;16.70;32.60;;;;;;5050587;28;20168;-61
2023/10/31 08:44:03;;;;;;;10.43;3.47;;;16.50;34.20;;;;;;5049017;28;20076;-60
2023/10/31 08:46:30;;;;;;;16.25;4.60;;;16.50;34.70;;;;;;5055645;28;20141;-59
2023/10/31 08:48:56;;;;;;;15.85;5.07;;;16.30;34.90;;;;;;5056025;28;20170;-59
2023/10/31 08:51:23;;;;;;;11.60;3.70;;;16.20;36.10;;;;;;5058301;28;20144;-59
2023/10/31 08:53:49;;;;;;;11.52;3.95;;;16.10;35.30;;;;;;5055479;28;20100;-62
2023/10/31 08:56:16;;;;;;;8.75;4.13;;;16.10;34.10;;;;;;5049161;28;20072;-59
2023/10/31 08:58:42;;;;;;;12.98;4.43;;;16.10;33.40;;;;;;5050165;28;20087;-59
2023/10/31 09:01:09;;;;;;;9.93;4.18;;;16.00;34.00;;;;;;5049982;28;20095;-58
2023/10/31 09:03:35;;;;;;;12.43;3.88;;;16.00;35.00;;;;;;5049441;28;20087;-60
2023/10/31 09:06:02;;;;;;;11.48;3.85;;;16.10;34.30;;;;;;5049071;28;20084;-57
2023/10/31 09:08:29;;;;;;;10.80;3.92;;;16.00;33.30;;;;;;5049825;28;20222;-60
2023/10/31 09:10:55;;;;;;;12.38;4.00;;;16.00;32.20;;;;;;5049531;28;20136;-60
2023/10/31 09:13:21;;;;;;;5.40;3.47;;;16.00;31.80;;;;;;5049020;28;21124;-59
2023/10/31 09:15:49;;;;;;;10.43;3.67;;;16.00;31.60;;;;;;5061555;28;20080;-60
2023/10/31 09:18:16;;;;;;;8.05;3.53;;;16.10;32.30;;;;;;5048510;28;20072;-59
2023/10/31 09:20:42;;;;;;;10.38;3.88;;;16.10;31.30;;;;;;5049632;28;20166;-59
2023/10/31 09:23:09;;;;;;;7.43;3.35;;;16.00;30.50;;;;;;5048561;28;20452;-57
2023/10/31 09:25:38;;;;;;;9.10;3.35;;;16.00;30.70;;;;;;5049466;28;20108;-59
2023/10/31 09:28:05;;;;;;;7.45;3.00;;;16.10;30.40;;;;;;5048699;28;20176;-62
2023/10/31 09:30:32;;;;;;;6.68;2.60;;;16.00;30.20;;;;;;5057125;28;20076;-57
2023/10/31 09:32:58;;;;;;;13.20;3.03;;;16.00;30.20;;;;;;5048632;28;20465;-60
2023/10/31 09:35:26;;;;;;;8.18;2.85;;;15.90;29.30;;;;;;5048722;28;20246;-59
2023/10/31 09:37:53;;;;;;;16.33;4.20;;;16.00;29.00;;;;;;5047850;28;20184;-60
2023/10/31 09:40:20;;;;;;;15.10;6.38;;;16.10;28.60;;;;;;5049919;28;20083;-62
2023/10/31 09:42:47;;;;;;;21.83;9.15;;;16.00;28.40;;;;;;5048821;28;20072;-59
2023/10/31 09:45:14;;;;;;;25.17;11.43;;;16.10;28.40;;;;;;5048790;28;20226;-61
2023/10/31 09:47:42;;;;;;;22.60;11.48;;;16.10;28.10;;;;;;5047608;28;20076;-61
2023/10/31 09:50:10;;;;;;;21.38;10.60;;;16.10;27.80;;;;;;5049175;28;20100;-61
2023/10/31 09:52:36;;;;;;;20.20;9.75;;;16.20;27.90;;;;;;5048091;28;20472;-60
2023/10/31 09:55:04;;;;;;;18.05;8.82;;;16.20;27.70;;;;;;5047609;28;20100;-62
2023/10/31 09:57:31;;;;;;;16.70;7.38;;;16.20;27.80;;;;;;5048643;28;20146;-59
2023/10/31 09:59:58;;;;;;;13.38;5.85;;;16.20;27.70;;;;;;5048678;28;20087;-61
2023/10/31 10:02:25;;;;;;;9.32;5.20;;;16.20;27.80;;;;;;5047869;28;20477;-63
2023/10/31 10:04:52;;;;;;;13.45;4.50;;;16.10;27.70;;;;;;5047917;28;20111;-59
2023/10/31 10:07:19;;;;;;;14.13;3.88;;;16.10;27.60;;;;;;5048338;28;20089;-60
2023/10/31 10:09:46;;;;;;;6.95;3.47;;;16.10;27.50;;;;;;5048095;28;20080;-59
2023/10/31 10:12:14;;;;;;;6.95;3.17;;;16.10;27.70;;;;;;5047345;28;20084;-58
2023/10/31 10:14:41;;;;;;;6.45;2.63;;;16.10;27.80;;;;;;5048296;28;20088;-57
2023/10/31 10:17:25;;;;;;;5.65;2.90;;;16.10;28.40;;;;;;5047743;28;20175;-59
2023/10/31 10:20:09;;;;;;;7.95;3.25;;;16.10;28.60;;;;;;5047089;28;20207;-62
2023/10/31 10:22:42;;;;;;;11.02;3.40;;;16.10;28.10;;;;;;5048330;28;20083;-61
2023/10/31 10:25:11;;;;;;;12.63;3.40;;;16.10;28.20;;;;;;5048532;28;20138;-59
2023/10/31 10:27:38;;;;;;;7.03;3.45;;;16.10;28.30;;;;;;5048148;28;20149;-59
2023/10/31 10:30:07;;;;;;;8.75;3.63;;;16.00;28.20;;;;;;5048799;28;20134;-59
2023/10/31 10:32:34;;;;;;;7.85;3.42;;;16.00;28.20;;;;;;5048150;28;20091;-61
2023/10/31 10:35:01;;;;;;;9.38;3.97;;;16.00;28.30;;;;;;5047247;28;20095;-59
2023/10/31 10:37:28;;;;;;;9.35;3.50;;;16.10;28.80;;;;;;5047247;28;20786;-57
2023/10/31 10:39:55;;;;;;;11.93;4.35;;;16.10;29.30;;;;;;5048297;28;20433;-58
2023/10/31 10:42:35;;;;;;;17.60;5.97;;;16.10;29.00;;;;;;5046945;28;20084;-60
2023/10/31 10:45:04;;;;;;;11.95;7.57;;;16.10;28.60;;;;;;5046560;28;20605;-60
2023/10/31 10:47:33;;;;;;;22.60;8.13;;;16.10;28.40;;;;;;5048357;28;20081;-59
2023/10/31 10:50:01;;;;;;;19.27;7.75;;;16.00;29.20;;;;;;5058986;28;20084;-56
2023/10/31 10:53:10;;;;;;;21.90;7.53;;;15.90;29.20;;;;;;5050088;28;20104;-58
2023/10/31 10:55:46;;;;;;;15.50;8.25;;;15.90;29.30;;;;;;5046766;28;20119;-62
2023/10/31 10:58:25;;;;;;;15.60;8.60;;;15.90;29.70;;;;;;5047309;28;20170;-60
2023/10/31 11:00:53;;;;;;;15.18;7.30;;;15.90;30.40;;;;;;5046351;28;20552;-60
2023/10/31 11:03:21;;;;;;;23.42;6.60;;;15.90;29.30;;;;;;5047475;28;20541;-58
2023/10/31 11:05:48;;;;;;;12.63;5.90;;;15.80;29.00;;;;;;5051107;28;20077;-62
2023/10/31 11:08:15;;;;;;;14.13;6.32;;;15.80;29.30;;;;;;5046165;28;20167;-61
2023/10/31 11:10:42;;;;;;;16.63;6.40;;;15.90;29.40;;;;;;5047980;28;20126;-58
2023/10/31 11:13:09;;;;;;;22.77;6.78;;;15.90;29.50;;;;;;5052988;28;20080;-61
2023/10/31 11:15:36;;;;;;;12.50;6.05;;;15.80;29.60;;;;;;5047860;28;20088;-59
2023/10/31 11:18:04;;;;;;;12.70;5.32;;;15.90;30.00;;;;;;5046544;28;20835;-57
2023/10/31 11:20:31;;;;;;;16.02;5.90;;;15.90;30.00;;;;;;5046336;28;20551;-61
2023/10/31 11:22:57;;;;;;;13.23;4.70;;;15.90;30.40;;;;;;5046862;28;20072;-57
2023/10/31 11:25:23;;;;;;;;;;;15.90;30.20;;;;;;5047485;28;20142;-59
2023/10/31 11:27:56;;;;;;;14.70;5.15;;;15.80;30.10;;;;;;5045606;28;20410;-60
2023/10/31 11:30:25;;;;;;;13.00;5.03;;;15.90;30.90;;;;;;5046638;28;20138;-59
2023/10/31 11:33:15;;;;;;;14.07;5.10;;;15.90;30.40;;;;;;5047234;28;20448;-56
2023/10/31 11:35:44;;;;;;;15.25;5.55;;;15.90;30.40;;;;;;5046670;28;20449;-55
2023/10/31 11:38:12;;;;;;;13.50;5.95;;;15.80;30.90;;;;;;5048597;28;20474;-58
2023/10/31 11:40:50;;;;;;;11.38;5.20;;;15.80;31.40;;;;;;5047048;28;20189;-57
2023/10/31 11:43:17;;;;;;;14.68;5.47;;;15.60;33.20;;;;;;5046270;28;20562;-57
2023/10/31 11:45:47;;;;;;;18.75;4.70;;;15.40;32.40;;;;;;5045630;28;20086;-59
2023/10/31 11:48:15;;;;;;;10.18;4.68;;;15.40;31.00;;;;;;5046226;28;20117;-60
2023/10/31 11:50:42;;;;;;;11.77;4.60;;;15.50;30.70;;;;;;5050360;28;20079;-61
2023/10/31 11:53:12;;;;;;;18.50;5.40;;;15.50;30.90;;;;;;5046716;28;20138;-59
2023/10/31 11:55:43;;;;;;;23.52;5.85;;;15.60;30.80;;;;;;5047073;28;20108;-61
2023/10/31 11:58:19;;;;;;;17.90;5.97;;;15.60;31.40;;;;;;5045512;28;20099;-59
2023/10/31 12:00:48;;;;;;;34.28;6.45;;;15.50;32.00;;;;;;5046336;28;20076;-60
2023/10/31 12:03:20;;;;;;;27.33;5.47;;;15.30;33.70;;;;;;5046875;28;20080;-60
2023/10/31 12:05:57;;;;;;;22.15;6.28;;;15.20;33.20;;;;;;5047575;28;20088;-59
2023/10/31 12:08:27;;;;;;;;;;;15.30;32.70;;;;;;5046007;28;20091;-60
2023/10/31 12:10:53;;;;;;;20.60;5.60;;;15.30;32.60;;;;;;5046682;28;19975;-59
2023/10/31 12:13:20;;;;;;;16.00;4.68;;;15.30;32.60;;;;;;5046454;28;20548;-62
2023/10/31 12:15:53;;;;;;;15.15;5.30;;;15.30;33.80;;;;;;5048904;28;20549;-61
2023/10/31 12:18:20;;;;;;;17.67;4.80;;;15.30;33.70;;;;;;5050827;28;20084;-60
2023/10/31 12:20:50;;;;;;;11.57;4.57;;;15.20;33.70;;;;;;5057846;28;20087;-58
2023/10/31 12:23:18;;;;;;;12.35;4.88;;;15.10;33.20;;;;;;5050002;28;20084;-60
2023/10/31 12:25:51;;;;;;;15.65;4.47;;;15.00;33.20;;;;;;5050168;28;20085;-61
2023/10/31 12:28:22;;;;;;;13.55;4.95;;;15.00;33.10;;;;;;5065473;28;20083;-59
2023/10/31 12:30:51;;;;;;;16.70;4.53;;;15.00;33.20;;;;;;5050726;28;20087;-59
2023/10/31 12:33:17;;;;;;;13.13;4.50;;;15.00;33.90;;;;;;5049640;28;20480;-60
2023/10/31 12:35:45;;;;;;;15.35;4.50;;;15.00;34.50;;;;;;5050628;28;20096;-61